Airport View

Enter AWOS ICAO identifier for current METAR.

ex. KFNL

KTEX 011215Z AUTO 13003KT 10SM CLR 06/M13 A3055 RMK AO2

1 Oct 2020 12:30

Frequency: 118.325

Phone: 970-728-1534

Other Area AWOS: KMTJ - KAIB - KDRO - KAJZ

TAF KTEX 011131Z 0112/0212 12007KT P6SM SKC FM011500 VRB04KT P6SM SKC FM011900 27012G20KT P6SM SKC FM020200 12007KT P6SM FEW250